createdAt,value
2023-01-02T00:02:13.449Z,5.63
2023-01-02T00:04:59.530Z,4.65
2023-01-02T00:07:45.750Z,4.30
2023-01-02T00:10:31.690Z,6.97
2023-01-02T00:13:17.478Z,5.55
2023-01-02T00:16:03.697Z,7.85
2023-01-02T00:18:50.859Z,6.85
2023-01-02T00:21:37.051Z,7.38
2023-01-02T00:24:23.455Z,8.00
2023-01-02T00:27:09.725Z,5.03
2023-01-02T00:29:55.782Z,5.22
2023-01-02T00:32:42.909Z,6.55
2023-01-02T00:35:28.835Z,4.85
2023-01-02T00:38:15.334Z,8.13
2023-01-02T00:41:01.544Z,4.35
2023-01-02T00:43:47.466Z,4.55
2023-01-02T00:46:33.636Z,3.17
2023-01-02T00:49:25.198Z,5.40
2023-01-02T00:52:11.168Z,4.05
2023-01-02T00:54:57.082Z,8.10
2023-01-02T00:57:43.043Z,7.40
2023-01-02T01:00:28.944Z,6.85
2023-01-02T01:03:14.740Z,3.22
2023-01-02T01:06:07.162Z,5.25
2023-01-02T01:08:53.364Z,5.38
2023-01-02T01:11:40.364Z,5.00
2023-01-02T01:14:26.746Z,4.05
2023-01-02T01:17:13.585Z,5.72
2023-01-02T01:20:02.646Z,6.95
2023-01-02T01:22:51.975Z,5.97
2023-01-02T01:25:41.023Z,3.80
2023-01-02T01:28:27.307Z,4.82
2023-01-02T01:31:15.557Z,6.32
2023-01-02T01:34:01.565Z,6.80
2023-01-02T01:36:48.583Z,5.85
2023-01-02T01:39:34.513Z,4.88
2023-01-02T01:42:20.687Z,4.25
2023-01-02T01:45:14.728Z,5.15
2023-01-02T01:48:01.109Z,5.05
2023-01-02T01:50:47.080Z,5.07
2023-01-02T01:53:33.018Z,4.88
2023-01-02T01:56:19.353Z,5.95
2023-01-02T01:59:07.464Z,4.95
2023-01-02T02:01:54.282Z,3.38
2023-01-02T02:04:42.484Z,5.55
2023-01-02T02:07:29.215Z,4.57
2023-01-02T02:10:15.356Z,4.05
2023-01-02T02:13:01.329Z,4.30
2023-01-02T02:16:07.443Z,4.97
2023-01-02T02:19:24.168Z,4.70
2023-01-02T02:22:31.938Z,5.22
2023-01-02T02:25:42.800Z,5.70
2023-01-02T02:29:00.399Z,4.70
2023-01-02T02:32:00.297Z,6.28
2023-01-02T02:34:59.665Z,4.32
2023-01-02T02:38:05.036Z,4.93
2023-01-02T02:41:02.656Z,5.57
2023-01-02T02:43:57.790Z,5.80
2023-01-02T02:47:08.246Z,7.60
2023-01-02T02:49:57.623Z,11.13
2023-01-02T02:53:09.112Z,4.85
2023-01-02T02:55:59.902Z,4.00
2023-01-02T02:58:46.977Z,6.88
2023-01-02T03:01:33.103Z,9.50
2023-01-02T03:04:21.640Z,7.50
2023-01-02T03:07:44.764Z,6.32
2023-01-02T03:10:45.162Z,5.30
2023-01-02T03:13:42.826Z,9.55
2023-01-02T03:16:41.659Z,9.27
2023-01-02T03:19:42.171Z,5.78
2023-01-02T03:22:36.318Z,5.65
2023-01-02T03:25:26.009Z,6.30
2023-01-02T03:28:17.395Z,4.22
2023-01-02T03:31:04.795Z,5.65
2023-01-02T03:33:55.263Z,5.85
2023-01-02T03:36:43.610Z,4.60
2023-01-02T03:39:32.444Z,7.57
2023-01-02T03:42:28.366Z,6.03
2023-01-02T03:45:20.658Z,5.30
2023-01-02T03:48:23.962Z,5.95
2023-01-02T03:51:10.499Z,6.10
2023-01-02T03:53:58.278Z,8.40
2023-01-02T03:57:03.417Z,8.32
2023-01-02T03:59:56.561Z,6.55
2023-01-02T04:02:45.887Z,6.32
2023-01-02T04:05:52.880Z,8.13
2023-01-02T04:08:51.886Z,14.75
2023-01-02T04:11:42.889Z,6.88
2023-01-02T04:14:42.331Z,7.35
2023-01-02T04:17:33.959Z,8.65
2023-01-02T04:20:27.924Z,7.20
2023-01-02T04:23:19.332Z,7.80
2023-01-02T04:26:16.097Z,4.97
2023-01-02T04:29:02.732Z,7.68
2023-01-02T04:31:56.175Z,6.35
2023-01-02T04:34:43.749Z,6.32
2023-01-02T04:37:35.467Z,5.25
2023-01-02T04:40:27.278Z,8.15
2023-01-02T04:43:21.980Z,6.57
2023-01-02T04:46:07.965Z,9.23
2023-01-02T04:48:54.932Z,8.07
2023-01-02T04:51:40.728Z,4.78
2023-01-02T04:54:26.755Z,7.53
2023-01-02T04:57:12.804Z,12.65
2023-01-02T04:59:58.751Z,6.30
2023-01-02T05:02:44.956Z,7.07
2023-01-02T05:05:31.862Z,4.75
2023-01-02T05:08:17.955Z,7.35
2023-01-02T05:11:10.582Z,10.07
2023-01-02T05:13:59.105Z,10.07
2023-01-02T05:16:48.520Z,4.35
2023-01-02T05:19:34.445Z,5.88
2023-01-02T05:22:38.767Z,9.07
2023-01-02T05:28:11.516Z,11.73
2023-01-02T05:31:00.024Z,9.77
2023-01-02T05:33:51.979Z,9.80
2023-01-02T05:36:38.310Z,8.73
2023-01-02T05:39:24.154Z,8.07
2023-01-02T05:42:09.991Z,4.38
2023-01-02T05:44:56.136Z,7.22
2023-01-02T05:47:42.324Z,7.38
2023-01-02T05:50:28.233Z,14.57
2023-01-02T05:53:14.172Z,6.82
2023-01-02T05:56:04.940Z,8.30
2023-01-02T05:58:51.132Z,5.45
2023-01-02T06:01:38.400Z,5.70
2023-01-02T06:04:24.644Z,9.13
2023-01-02T06:07:10.874Z,8.70
2023-01-02T06:09:56.997Z,5.38
2023-01-02T06:12:42.759Z,6.32
2023-01-02T06:15:28.702Z,10.00
2023-01-02T06:18:14.594Z,6.72
2023-01-02T06:21:15.620Z,6.15
2023-01-02T06:24:01.644Z,10.05
2023-01-02T06:26:50.202Z,4.63
2023-01-02T06:29:38.069Z,6.82
2023-01-02T06:32:24.078Z,5.57
2023-01-02T06:35:10.367Z,7.10
2023-01-02T06:37:56.597Z,6.15
2023-01-02T06:40:52.714Z,5.20
2023-01-02T06:43:49.713Z,6.45
2023-01-02T06:46:35.742Z,4.25
2023-01-02T06:49:21.633Z,5.72
2023-01-02T06:52:07.814Z,4.95
2023-01-02T06:54:53.859Z,5.63
2023-01-02T06:57:39.918Z,9.35
2023-01-02T07:00:26.443Z,5.75
2023-01-02T07:03:12.661Z,7.55
2023-01-02T07:06:10.773Z,3.60
2023-01-02T07:08:56.760Z,7.38
2023-01-02T07:11:42.694Z,10.38
2023-01-02T07:14:28.652Z,6.07
2023-01-02T07:17:15.016Z,8.93
2023-01-02T07:20:03.718Z,7.43
2023-01-02T07:22:54.505Z,7.57
2023-01-02T07:25:44.386Z,6.53
2023-01-02T07:28:31.908Z,9.10
2023-01-02T07:31:19.915Z,4.47
2023-01-02T07:34:06.115Z,6.43
2023-01-02T07:36:51.843Z,4.85
2023-01-02T07:39:38.043Z,5.35
2023-01-02T07:42:25.779Z,5.53
2023-01-02T07:45:12.348Z,6.40
2023-01-02T07:47:58.377Z,4.97
2023-01-02T07:50:44.832Z,9.65
2023-01-02T07:53:31.117Z,10.15
2023-01-02T07:56:17.354Z,6.50
2023-01-02T07:59:03.545Z,11.93
2023-01-02T08:01:49.754Z,8.45
2023-01-02T08:04:36.613Z,8.30
2023-01-02T08:07:23.232Z,8.65
2023-01-02T08:10:13.270Z,5.68
2023-01-02T08:12:59.666Z,6.57
2023-01-02T08:15:46.438Z,6.50
2023-01-02T08:18:33.045Z,7.45
2023-01-02T08:21:19.162Z,6.30
2023-01-02T08:24:08.150Z,4.28
2023-01-02T08:26:56.107Z,5.45
2023-01-02T08:29:42.169Z,9.43
2023-01-02T08:32:28.238Z,4.72
2023-01-02T08:35:14.182Z,6.03
2023-01-02T08:38:00.728Z,9.38
2023-01-02T08:40:46.862Z,12.20
2023-01-02T08:43:36.766Z,5.40
2023-01-02T08:46:22.648Z,6.78
2023-01-02T08:49:08.717Z,4.57
2023-01-02T08:51:54.596Z,7.10
2023-01-02T08:54:40.572Z,12.23
2023-01-02T08:57:26.855Z,6.47
2023-01-02T09:00:13.498Z,9.38
2023-01-02T09:02:59.551Z,3.92
2023-01-02T09:05:46.108Z,5.45
2023-01-02T09:08:32.099Z,7.50
2023-01-02T09:11:28.021Z,8.55
2023-01-02T09:14:14.418Z,9.15
2023-01-02T09:17:00.517Z,7.65
2023-01-02T09:19:46.501Z,9.98
2023-01-02T09:22:32.303Z,6.30
2023-01-02T09:25:23.936Z,5.57
2023-01-02T09:28:15.051Z,9.88
2023-01-02T09:31:12.013Z,7.15
2023-01-02T09:33:59.094Z,8.10
2023-01-02T09:36:47.562Z,11.95
2023-01-02T09:39:33.832Z,7.32
2023-01-02T09:42:20.190Z,4.30
2023-01-02T09:45:09.364Z,5.70
2023-01-02T09:47:58.521Z,8.90
2023-01-02T09:50:48.091Z,9.10
2023-01-02T09:53:34.518Z,5.85
2023-01-02T09:56:38.406Z,9.77
2023-01-02T09:59:33.985Z,11.50
2023-01-02T10:02:43.025Z,9.32
2023-01-02T10:05:41.284Z,5.78
2023-01-02T10:08:40.996Z,9.52
2023-01-02T10:11:44.379Z,11.68
2023-01-02T10:14:55.449Z,8.70
2023-01-02T10:17:50.164Z,10.18
2023-01-02T10:23:33.056Z,9.30
2023-01-02T10:26:22.235Z,9.15
2023-01-02T10:29:27.136Z,5.80
2023-01-02T10:32:17.558Z,7.50
2023-01-02T10:35:06.476Z,11.32
2023-01-02T10:37:54.429Z,9.93
2023-01-02T10:40:44.431Z,5.03
2023-01-02T10:43:32.262Z,7.25
2023-01-02T10:46:18.374Z,11.25
2023-01-02T10:49:07.193Z,10.27
2023-01-02T10:52:21.213Z,7.07
2023-01-02T10:55:07.685Z,8.27
2023-01-02T10:57:56.651Z,5.22
2023-01-02T11:00:46.166Z,7.90
2023-01-02T11:03:33.569Z,8.50
2023-01-02T11:06:51.064Z,5.95
2023-01-02T11:09:54.489Z,7.05
2023-01-02T11:12:47.826Z,7.03
2023-01-02T11:15:47.852Z,5.32
2023-01-02T11:18:35.568Z,5.65
2023-01-02T11:21:38.847Z,10.90
2023-01-02T11:24:28.464Z,7.57
2023-01-02T11:27:14.566Z,6.85
2023-01-02T11:30:01.956Z,7.05
2023-01-02T11:33:00.965Z,6.40
2023-01-02T11:35:50.533Z,5.40
2023-01-02T11:38:44.913Z,9.68
2023-01-02T11:41:51.117Z,6.78
2023-01-02T11:44:55.894Z,8.20
2023-01-02T11:47:44.265Z,9.13
2023-01-02T11:50:33.909Z,4.40
2023-01-02T11:53:40.867Z,8.98
2023-01-02T11:56:39.887Z,6.30
2023-01-02T11:59:36.336Z,6.13
2023-01-02T12:02:36.339Z,5.13
2023-01-02T12:05:45.374Z,6.95
2023-01-02T12:08:57.241Z,7.22
2023-01-02T12:11:53.915Z,5.60
2023-01-02T12:15:04.855Z,6.57
2023-01-02T12:18:15.309Z,5.43
2023-01-02T12:21:04.348Z,8.48
2023-01-02T12:24:16.399Z,5.70
2023-01-02T12:27:37.409Z,7.32
2023-01-02T12:30:23.758Z,3.78
2023-01-02T12:33:31.454Z,5.10
2023-01-02T12:36:26.530Z,9.48
2023-01-02T12:39:34.609Z,4.55
2023-01-02T12:42:48.807Z,7.57
2023-01-02T12:46:01.284Z,4.82
2023-01-02T12:48:55.492Z,6.35
2023-01-02T12:51:55.614Z,5.70
2023-01-02T12:55:11.102Z,6.53
2023-01-02T12:58:28.777Z,6.95
2023-01-02T13:01:39.955Z,9.02
2023-01-02T13:04:35.728Z,5.60
2023-01-02T13:07:30.416Z,7.00
2023-01-02T13:10:23.851Z,7.55
2023-01-02T13:13:12.882Z,5.93
2023-01-02T13:16:03.856Z,6.22
2023-01-02T13:19:18.782Z,5.13
2023-01-02T13:22:28.336Z,4.03
2023-01-02T13:25:18.324Z,4.93
2023-01-02T13:28:08.053Z,8.13
2023-01-02T13:31:35.392Z,5.85
2023-01-02T13:34:22.231Z,5.22
2023-01-02T13:37:15.733Z,7.80
2023-01-02T13:40:04.167Z,6.27
2023-01-02T13:43:01.856Z,5.18
2023-01-02T13:45:51.827Z,7.25
2023-01-02T13:48:46.946Z,7.43
2023-01-02T13:51:36.183Z,4.82
2023-01-02T13:54:36.863Z,5.20
2023-01-02T13:57:29.011Z,5.82
2023-01-02T14:00:14.817Z,5.63
2023-01-02T14:03:21.736Z,6.53
2023-01-02T14:06:29.405Z,6.82
2023-01-02T14:09:20.735Z,8.80
2023-01-02T14:12:13.020Z,7.65
2023-01-02T14:14:58.924Z,7.00
2023-01-02T14:18:04.404Z,5.45
2023-01-02T14:20:50.752Z,5.38
2023-01-02T14:24:18.029Z,7.40
2023-01-02T14:26:58.147Z,5.63
2023-01-02T14:29:55.144Z,7.93
2023-01-02T14:32:44.071Z,5.70
2023-01-02T14:35:48.332Z,6.90
2023-01-02T14:38:50.363Z,8.02
2023-01-02T14:42:10.229Z,4.80
2023-01-02T14:45:06.013Z,4.97
2023-01-02T14:47:58.143Z,6.47
2023-01-02T14:50:47.643Z,7.65
2023-01-02T14:53:51.841Z,9.38
2023-01-02T14:56:41.258Z,6.32
2023-01-02T14:59:32.374Z,7.50
2023-01-02T15:02:22.150Z,5.35
2023-01-02T15:05:37.295Z,8.43
2023-01-02T15:08:34.557Z,3.65
2023-01-02T15:11:42.132Z,5.50
2023-01-02T15:14:28.065Z,4.05
2023-01-02T15:17:21.010Z,5.45
2023-01-02T15:20:08.639Z,4.82
2023-01-02T15:23:01.785Z,11.68
2023-01-02T15:25:48.191Z,3.95
2023-01-02T15:28:34.677Z,7.32
2023-01-02T15:31:20.926Z,6.10
2023-01-02T15:34:07.097Z,7.28
2023-01-02T15:36:53.388Z,7.13
2023-01-02T15:39:42.416Z,6.78
2023-01-02T15:42:47.298Z,6.72
2023-01-02T15:45:34.223Z,6.50
2023-01-02T15:48:22.718Z,7.40
2023-01-02T15:51:18.040Z,5.82
2023-01-02T15:54:04.215Z,7.22
2023-01-02T15:56:50.946Z,6.35
2023-01-02T15:59:39.180Z,7.05
2023-01-02T16:02:55.202Z,6.18
2023-01-02T16:05:51.637Z,5.13
2023-01-02T16:08:38.315Z,5.57
2023-01-02T16:11:25.579Z,6.82
2023-01-02T16:14:28.885Z,5.00
2023-01-02T16:17:25.286Z,6.15
2023-01-02T16:20:14.055Z,9.48
2023-01-02T16:23:05.208Z,7.32
2023-01-02T16:25:51.706Z,6.10
2023-01-02T16:28:42.243Z,5.07
2023-01-02T16:31:29.038Z,10.15
2023-01-02T16:34:26.527Z,8.52
2023-01-02T16:37:15.600Z,12.85
2023-01-02T16:41:00.946Z,9.30
2023-01-02T16:43:49.147Z,10.18
2023-01-02T16:46:35.658Z,11.18
2023-01-02T16:49:23.388Z,8.70
2023-01-02T16:52:10.238Z,12.15
2023-01-02T16:54:56.257Z,11.27
2023-01-02T16:57:42.300Z,16.63
2023-01-02T17:00:31.071Z,13.73
2023-01-02T17:03:23.499Z,14.23
2023-01-02T17:06:13.468Z,13.32
2023-01-02T17:09:01.196Z,12.85
2023-01-02T17:12:01.245Z,12.98
2023-01-02T17:14:49.919Z,11.77
2023-01-02T17:17:35.940Z,11.68
2023-01-02T17:20:22.187Z,15.50
2023-01-02T17:23:08.542Z,13.50
2023-01-02T17:25:54.871Z,10.95
2023-01-02T17:28:42.931Z,14.75
2023-01-02T17:31:28.673Z,11.30
2023-01-02T17:34:14.583Z,14.77
2023-01-02T17:37:02.561Z,16.27
2023-01-02T17:39:48.737Z,11.65
2023-01-02T17:42:35.124Z,15.43
2023-01-02T17:45:21.423Z,11.18
2023-01-02T17:48:11.581Z,13.35
2023-01-02T17:50:58.703Z,12.50
2023-01-02T17:53:46.230Z,10.80
2023-01-02T17:56:32.725Z,11.98
2023-01-02T17:59:19.913Z,14.05
2023-01-02T18:02:07.310Z,12.10
2023-01-02T18:04:55.467Z,12.40
2023-01-02T18:07:43.083Z,12.55
2023-01-02T18:10:32.987Z,14.73
2023-01-02T18:13:20.179Z,14.70
2023-01-02T18:16:22.232Z,15.38
2023-01-02T18:19:17.475Z,13.23
2023-01-02T18:22:19.640Z,11.77
2023-01-02T18:25:18.086Z,14.55
2023-01-02T18:28:24.897Z,12.13
2023-01-02T18:31:15.596Z,16.33
2023-01-02T18:34:16.818Z,19.42
2023-01-02T18:37:26.132Z,14.63
2023-01-02T18:40:35.572Z,15.63
2023-01-02T18:43:27.315Z,15.73
2023-01-02T18:47:04.068Z,16.50
2023-01-02T18:49:42.985Z,18.65
2023-01-02T18:52:33.645Z,16.13
2023-01-02T18:55:25.110Z,18.08
2023-01-02T18:58:51.445Z,15.05
2023-01-02T19:01:44.825Z,19.83
2023-01-02T19:04:40.269Z,14.00
2023-01-02T19:07:32.829Z,16.92
2023-01-02T19:10:37.190Z,12.07
2023-01-02T19:13:26.890Z,14.63
2023-01-02T19:16:14.575Z,13.55
2023-01-02T19:19:02.452Z,10.93
2023-01-02T19:21:51.029Z,14.02
2023-01-02T19:24:37.857Z,15.70
2023-01-02T19:27:36.442Z,15.20
2023-01-02T19:30:38.018Z,20.23
2023-01-02T19:33:51.465Z,16.23
2023-01-02T19:36:41.520Z,14.30
2023-01-02T19:39:33.496Z,10.43
2023-01-02T19:42:21.284Z,14.00
2023-01-02T19:45:14.225Z,17.13
2023-01-02T19:48:00.481Z,13.50
2023-01-02T19:50:46.626Z,14.30
2023-01-02T19:53:32.693Z,12.48
2023-01-02T19:56:21.856Z,19.38
2023-01-02T19:59:12.573Z,14.40
2023-01-02T20:02:00.720Z,16.88
2023-01-02T20:04:50.041Z,19.63
2023-01-02T20:07:36.231Z,15.02
2023-01-02T20:10:22.772Z,13.93
2023-01-02T20:13:08.787Z,17.85
2023-01-02T20:15:54.605Z,15.43
2023-01-02T20:18:40.467Z,16.95
2023-01-02T20:21:28.423Z,16.85
2023-01-02T20:24:15.764Z,17.98
2023-01-02T20:27:03.508Z,17.23
2023-01-02T20:29:50.956Z,14.80
2023-01-02T20:32:37.431Z,15.35
2023-01-02T20:35:23.522Z,13.32
2023-01-02T20:38:09.586Z,14.40
2023-01-02T20:40:56.043Z,17.02
2023-01-02T20:43:42.493Z,18.63
2023-01-02T20:46:29.740Z,18.75
2023-01-02T20:49:15.949Z,19.13
2023-01-02T20:52:03.283Z,16.35
2023-01-02T20:57:40.694Z,17.95
2023-01-02T21:00:27.105Z,15.85
2023-01-02T21:03:12.972Z,13.13
2023-01-02T21:05:59.634Z,15.65
2023-01-02T21:08:45.350Z,16.95
2023-01-02T21:11:31.999Z,15.32
2023-01-02T21:14:18.715Z,18.48
2023-01-02T21:17:05.206Z,19.85
2023-01-02T21:19:51.596Z,17.30
2023-01-02T21:22:37.588Z,18.98
2023-01-02T21:25:26.577Z,15.93
2023-01-02T21:28:13.847Z,13.57
2023-01-02T21:31:00.390Z,15.07
2023-01-02T21:33:47.548Z,16.58
2023-01-02T21:36:37.099Z,19.35
2023-01-02T21:39:23.154Z,17.42
2023-01-02T21:42:16.401Z,15.63
2023-01-02T21:45:02.772Z,15.63
2023-01-02T21:47:49.036Z,13.27
2023-01-02T21:50:35.586Z,15.07
2023-01-02T21:53:22.198Z,16.10
2023-01-02T21:56:08.501Z,15.38
2023-01-02T21:58:55.086Z,14.57
2023-01-02T22:01:41.071Z,16.65
2023-01-02T22:04:27.401Z,18.23
2023-01-02T22:07:31.191Z,22.33
2023-01-02T22:10:18.909Z,17.15
2023-01-02T22:13:04.640Z,16.10
2023-01-02T22:15:50.537Z,18.83
2023-01-02T22:18:38.395Z,21.55
2023-01-02T22:21:24.603Z,14.85
2023-01-02T22:24:10.935Z,17.85
2023-01-02T22:27:01.059Z,15.95
2023-01-02T22:32:55.190Z,17.38
2023-01-02T22:35:41.251Z,21.55
2023-01-02T22:38:27.419Z,17.38
2023-01-02T22:41:13.348Z,20.77
2023-01-02T22:44:01.319Z,16.45
2023-01-02T22:46:51.847Z,16.40
2023-01-02T22:49:39.420Z,14.65
2023-01-02T22:52:25.822Z,15.45
2023-01-02T22:55:17.371Z,14.32
2023-01-02T22:58:03.533Z,15.23
2023-01-02T23:00:58.988Z,15.80
2023-01-02T23:03:46.801Z,16.27
2023-01-02T23:06:35.501Z,23.63
2023-01-02T23:12:18.474Z,16.77
2023-01-02T23:15:07.198Z,14.95
2023-01-02T23:18:11.751Z,14.68
2023-01-02T23:20:59.176Z,14.55
2023-01-02T23:23:45.312Z,14.90
2023-01-02T23:26:37.260Z,14.98
2023-01-02T23:29:24.567Z,14.52
2023-01-02T23:32:11.054Z,11.75
2023-01-02T23:34:57.528Z,13.30
2023-01-02T23:37:43.442Z,13.35
2023-01-02T23:40:34.321Z,11.40
2023-01-02T23:43:21.365Z,11.75
2023-01-02T23:46:08.122Z,12.45
2023-01-02T23:49:01.395Z,12.60
2023-01-02T23:51:47.907Z,12.33
2023-01-02T23:54:34.169Z,10.63
2023-01-02T23:57:20.426Z,14.93
